sensor_id;sensor_type;location;lat;lon;timestamp;pressure;altitude;pressure_sealevel;temperature;humidity
4012;BME280;2020;48.682;9.024;2024-01-07T00:01:10;95780.72;;;2.89;100.00
4012;BME280;2020;48.682;9.024;2024-01-07T00:03:36;95778.13;;;2.89;100.00
4012;BME280;2020;48.682;9.024;2024-01-07T00:06:01;95783.97;;;2.91;100.00
4012;BME280;2020;48.682;9.024;2024-01-07T00:08:27;95778.97;;;2.90;100.00
4012;BME280;2020;48.682;9.024;2024-01-07T00:10:52;95780.72;;;2.89;100.00
4012;BME280;2020;48.682;9.024;2024-01-07T00:13:17;95780.72;;;2.89;100.00
4012;BME280;2020;48.682;9.024;2024-01-07T00:15:43;95787.47;;;2.90;100.00
4012;BME280;2020;48.682;9.024;2024-01-07T00:18:08;95783.66;;;2.85;100.00
4012;BME280;2020;48.682;9.024;2024-01-07T00:20:33;95792.31;;;2.84;100.00
4012;BME280;2020;48.682;9.024;2024-01-07T00:22:59;95780.16;;;2.86;100.00
4012;BME280;2020;48.682;9.024;2024-01-07T00:25:24;95791.81;;;2.90;100.00
4012;BME280;2020;48.682;9.024;2024-01-07T00:27:49;95789.34;;;2.88;100.00
4012;BME280;2020;48.682;9.024;2024-01-07T00:30:16;95781.19;;;2.83;100.00
4012;BME280;2020;48.682;9.024;2024-01-07T00:32:41;95783.66;;;2.85;100.00
4012;BME280;2020;48.682;9.024;2024-01-07T00:35:07;95785.41;;;2.84;100.00
4012;BME280;2020;48.682;9.024;2024-01-07T00:37:32;95789.84;;;2.82;100.00
4012;BME280;2020;48.682;9.024;2024-01-07T00:40:00;95789.84;;;2.82;100.00
4012;BME280;2020;48.682;9.024;2024-01-07T00:42:25;95785.78;;;2.80;100.00
4012;BME280;2020;48.682;9.024;2024-01-07T00:44:50;95788.91;;;2.83;100.00
4012;BME280;2020;48.682;9.024;2024-01-07T00:47:15;95786.59;;;2.80;100.00
4012;BME280;2020;48.682;9.024;2024-01-07T00:49:41;95789.31;;;2.78;100.00
4012;BME280;2020;48.682;9.024;2024-01-07T00:52:06;95784.97;;;2.79;100.00
4012;BME280;2020;48.682;9.024;2024-01-07T00:54:31;95783.09;;;2.81;100.00
4012;BME280;2020;48.682;9.024;2024-01-07T00:56:57;95790.09;;;2.79;100.00
4012;BME280;2020;48.682;9.024;2024-01-07T00:59:22;95789.16;;;2.80;100.00
4012;BME280;2020;48.682;9.024;2024-01-07T01:01:47;95791.72;;;2.80;100.00
4012;BME280;2020;48.682;9.024;2024-01-07T01:04:13;95795.25;;;2.79;100.00
4012;BME280;2020;48.682;9.024;2024-01-07T01:06:38;95796.88;;;2.80;100.00
4012;BME280;2020;48.682;9.024;2024-01-07T01:09:03;95788.22;;;2.81;100.00
4012;BME280;2020;48.682;9.024;2024-01-07T01:11:28;95792.19;;;2.85;100.00
4012;BME280;2020;48.682;9.024;2024-01-07T01:13:54;95788.81;;;2.85;100.00
4012;BME280;2020;48.682;9.024;2024-01-07T01:16:19;95789.84;;;2.82;100.00
4012;BME280;2020;48.682;9.024;2024-01-07T01:18:44;95796.31;;;2.76;100.00
4012;BME280;2020;48.682;9.024;2024-01-07T01:21:09;95800.88;;;2.73;100.00
4012;BME280;2020;48.682;9.024;2024-01-07T01:23:35;95803.34;;;2.74;100.00
4012;BME280;2020;48.682;9.024;2024-01-07T01:26:00;95804.63;;;2.69;100.00
4012;BME280;2020;48.682;9.024;2024-01-07T01:28:26;95810.59;;;2.69;100.00
4012;BME280;2020;48.682;9.024;2024-01-07T01:30:51;95805.59;;;2.56;100.00
4012;BME280;2020;48.682;9.024;2024-01-07T01:33:16;95800.97;;;2.50;100.00
4012;BME280;2020;48.682;9.024;2024-01-07T01:35:41;95807.47;;;2.54;100.00
4012;BME280;2020;48.682;9.024;2024-01-07T01:38:07;95814.25;;;2.55;100.00
4012;BME280;2020;48.682;9.024;2024-01-07T01:40:32;95814.94;;;2.57;100.00
4012;BME280;2020;48.682;9.024;2024-01-07T01:42:57;95805.59;;;2.56;100.00
4012;BME280;2020;48.682;9.024;2024-01-07T01:45:23;95806.09;;;2.50;100.00
4012;BME280;2020;48.682;9.024;2024-01-07T01:47:48;95810.66;;;2.46;100.00
4012;BME280;2020;48.682;9.024;2024-01-07T01:50:13;95811.47;;;2.47;100.00
4012;BME280;2020;48.682;9.024;2024-01-07T01:52:39;95813.34;;;2.45;100.00
4012;BME280;2020;48.682;9.024;2024-01-07T01:55:05;95811.47;;;2.47;100.00
4012;BME280;2020;48.682;9.024;2024-01-07T01:57:33;95809.59;;;2.49;100.00
4012;BME280;2020;48.682;9.024;2024-01-07T02:00:03;95812.03;;;2.51;100.00
4012;BME280;2020;48.682;9.024;2024-01-07T02:02:30;95807.72;;;2.51;100.00
4012;BME280;2020;48.682;9.024;2024-01-07T02:04:57;95814.50;;;2.52;100.00
4012;BME280;2020;48.682;9.024;2024-01-07T02:07:24;95812.63;;;2.54;100.00
4012;BME280;2020;48.682;9.024;2024-01-07T02:09:49;95805.84;;;2.53;100.00
4012;BME280;2020;48.682;9.024;2024-01-07T02:12:15;95806.09;;;2.50;100.00
4012;BME280;2020;48.682;9.024;2024-01-07T02:14:40;95809.84;;;2.46;100.00
4012;BME280;2020;48.682;9.024;2024-01-07T02:17:05;95814.16;;;2.45;100.00
4012;BME280;2020;48.682;9.024;2024-01-07T02:19:30;95813.34;;;2.45;100.00
4012;BME280;2020;48.682;9.024;2024-01-07T02:21:56;95814.06;;;2.36;100.00
4012;BME280;2020;48.682;9.024;2024-01-07T02:24:21;95807.31;;;2.34;100.00
4012;BME280;2020;48.682;9.024;2024-01-07T02:26:47;95812.44;;;2.34;100.00
4012;BME280;2020;48.682;9.024;2024-01-07T02:29:13;95813.00;;;2.38;100.00
4012;BME280;2020;48.682;9.024;2024-01-07T02:31:38;95815.72;;;2.37;100.00
4012;BME280;2020;48.682;9.024;2024-01-07T02:34:03;95810.56;;;2.37;100.00
4012;BME280;2020;48.682;9.024;2024-01-07T02:36:28;95810.13;;;2.31;100.00
4012;BME280;2020;48.682;9.024;2024-01-07T02:38:54;95812.44;;;2.34;100.00
4012;BME280;2020;48.682;9.024;2024-01-07T02:41:19;95818.97;;;2.39;100.00
4012;BME280;2020;48.682;9.024;2024-01-07T02:43:46;95811.97;;;2.41;100.00
4012;BME280;2020;48.682;9.024;2024-01-07T02:46:11;95823.03;;;2.41;100.00
4012;BME280;2020;48.682;9.024;2024-01-07T02:48:36;95817.56;;;2.34;100.00
4012;BME280;2020;48.682;9.024;2024-01-07T02:51:01;95816.75;;;2.34;100.00
4012;BME280;2020;48.682;9.024;2024-01-07T02:53:28;95813.25;;;2.35;100.00
4012;BME280;2020;48.682;9.024;2024-01-07T02:55:54;95813.25;;;2.35;100.00
4012;BME280;2020;48.682;9.024;2024-01-07T02:58:19;95810.56;;;2.37;100.00
4012;BME280;2020;48.682;9.024;2024-01-07T03:00:44;95814.88;;;2.36;100.00
4012;BME280;2020;48.682;9.024;2024-01-07T03:03:09;95819.44;;;2.32;100.00
4012;BME280;2020;48.682;9.024;2024-01-07T03:05:34;95811.38;;;2.37;100.00
4012;BME280;2020;48.682;9.024;2024-01-07T03:08:00;95813.59;;;2.42;100.00
4012;BME280;2020;48.682;9.024;2024-01-07T03:10:25;95820.38;;;2.43;100.00
4012;BME280;2020;48.682;9.024;2024-01-07T03:12:51;95817.78;;;2.43;100.00
4012;BME280;2020;48.682;9.024;2024-01-07T03:15:16;95825.75;;;2.40;100.00
4012;BME280;2020;48.682;9.024;2024-01-07T03:17:41;95822.94;;;2.43;100.00
4012;BME280;2020;48.682;9.024;2024-01-07T03:20:08;95822.22;;;2.41;100.00
4012;BME280;2020;48.682;9.024;2024-01-07T03:22:33;95833.44;;;2.40;100.00
4012;BME280;2020;48.682;9.024;2024-01-07T03:24:58;95833.69;;;2.37;100.00
4012;BME280;2020;48.682;9.024;2024-01-07T03:27:24;95834.84;;;2.32;100.00
4012;BME280;2020;48.682;9.024;2024-01-07T03:29:49;95838.38;;;2.31;100.00
4012;BME280;2020;48.682;9.024;2024-01-07T03:32:14;95827.84;;;2.34;100.00
4012;BME280;2020;48.682;9.024;2024-01-07T03:34:39;95836.72;;;2.30;100.00
4012;BME280;2020;48.682;9.024;2024-01-07T03:37:05;95837.44;;;2.21;100.00
4012;BME280;2020;48.682;9.024;2024-01-07T03:39:34;95841.97;;;2.29;100.00
4012;BME280;2020;48.682;9.024;2024-01-07T03:41:59;95831.59;;;2.30;100.00
4012;BME280;2020;48.682;9.024;2024-01-07T03:44:24;95840.81;;;2.33;100.00
4012;BME280;2020;48.682;9.024;2024-01-07T03:46:50;95836.13;;;2.27;100.00
4012;BME280;2020;48.682;9.024;2024-01-07T03:49:16;95834.41;;;2.27;100.00
4012;BME280;2020;48.682;9.024;2024-01-07T03:51:42;95843.25;;;2.34;100.00
4012;BME280;2020;48.682;9.024;2024-01-07T03:54:08;95836.50;;;2.33;100.00
4012;BME280;2020;48.682;9.024;2024-01-07T03:56:33;95835.31;;;2.38;100.00
4012;BME280;2020;48.682;9.024;2024-01-07T03:58:58;95836.00;;;2.40;100.00
4012;BME280;2020;48.682;9.024;2024-01-07T04:01:24;95823.97;;;2.40;100.00
4012;BME280;2020;48.682;9.024;2024-01-07T04:03:49;95829.25;;;2.39;100.00
4012;BME280;2020;48.682;9.024;2024-01-07T04:06:14;95836.00;;;2.40;100.00
4012;BME280;2020;48.682;9.024;2024-01-07T04:08:39;95839.50;;;2.39;100.00
4012;BME280;2020;48.682;9.024;2024-01-07T04:11:05;95841.38;;;2.37;100.00
4012;BME280;2020;48.682;9.024;2024-01-07T04:13:30;95846.53;;;2.37;100.00
4012;BME280;2020;48.682;9.024;2024-01-07T04:15:55;95850.13;;;2.34;100.00
4012;BME280;2020;48.682;9.024;2024-01-07T04:18:20;95841.38;;;2.37;100.00
4012;BME280;2020;48.682;9.024;2024-01-07T04:20:45;95843.25;;;2.34;100.00
4012;BME280;2020;48.682;9.024;2024-01-07T04:23:11;95844.53;;;2.29;100.00
4012;BME280;2020;48.682;9.024;2024-01-07T04:25:36;95847.00;;;2.30;100.00
4012;BME280;2020;48.682;9.024;2024-01-07T04:28:01;95847.25;;;2.27;100.00
4012;BME280;2020;48.682;9.024;2024-01-07T04:30:27;95850.50;;;2.29;100.00
4012;BME280;2020;48.682;9.024;2024-01-07T04:32:52;95856.44;;;2.30;100.00
4012;BME280;2020;48.682;9.024;2024-01-07T04:35:17;95861.72;;;2.28;100.00
4012;BME280;2020;48.682;9.024;2024-01-07T04:37:42;95855.06;;;2.26;100.00
4012;BME280;2020;48.682;9.024;2024-01-07T04:40:08;95857.16;;;2.21;100.00
4012;BME280;2020;48.682;9.024;2024-01-07T04:42:34;95852.63;;;2.24;100.00
4012;BME280;2020;48.682;9.024;2024-01-07T04:44:59;95858.09;;;2.19;100.00
4012;BME280;2020;48.682;9.024;2024-01-07T04:47:28;95862.66;;;2.04;100.00
4012;BME280;2020;48.682;9.024;2024-01-07T04:49:54;95863.84;;;2.12;100.00
4012;BME280;2020;48.682;9.024;2024-01-07T04:52:19;95872.25;;;2.14;100.00
4012;BME280;2020;48.682;9.024;2024-01-07T04:54:45;95867.44;;;2.21;100.00
4012;BME280;2020;48.682;9.024;2024-01-07T04:57:10;95874.34;;;2.20;100.00
4012;BME280;2020;48.682;9.024;2024-01-07T04:59:35;95870.94;;;2.19;100.00
4012;BME280;2020;48.682;9.024;2024-01-07T05:02:01;95871.53;;;2.23;100.00
4012;BME280;2020;48.682;9.024;2024-01-07T05:04:26;95868.25;;;2.21;100.00
4012;BME280;2020;48.682;9.024;2024-01-07T05:06:51;95876.91;;;2.20;100.00
4012;BME280;2020;48.682;9.024;2024-01-07T05:09:17;95874.09;;;2.12;100.00
4012;BME280;2020;48.682;9.024;2024-01-07T05:11:42;95874.56;;;2.06;100.00
4012;BME280;2020;48.682;9.024;2024-01-07T05:14:07;95875.25;;;1.96;100.00
4012;BME280;2020;48.682;9.024;2024-01-07T05:16:33;95873.28;;;2.00;100.00
4012;BME280;2020;48.682;9.024;2024-01-07T05:18:58;95883.22;;;2.04;100.00
4012;BME280;2020;48.682;9.024;2024-01-07T05:21:23;95878.75;;;1.95;100.00
4012;BME280;2020;48.682;9.024;2024-01-07T05:23:48;95887.03;;;1.87;100.00
4012;BME280;2020;48.682;9.024;2024-01-07T05:26:14;95882.94;;;1.85;100.00
4012;BME280;2020;48.682;9.024;2024-01-07T05:28:39;95882.47;;;1.91;100.00
4012;BME280;2020;48.682;9.024;2024-01-07T05:31:04;95882.25;;;1.94;100.00
4012;BME280;2020;48.682;9.024;2024-01-07T05:33:30;95887.88;;;1.99;100.00
4012;BME280;2020;48.682;9.024;2024-01-07T05:35:55;95886.22;;;1.98;100.00
4012;BME280;2020;48.682;9.024;2024-01-07T05:38:20;95891.00;;;2.03;100.00
4012;BME280;2020;48.682;9.024;2024-01-07T05:40:45;95891.84;;;2.03;100.00
4012;BME280;2020;48.682;9.024;2024-01-07T05:43:11;95892.28;;;1.97;100.00
4012;BME280;2020;48.682;9.024;2024-01-07T05:45:36;95891.09;;;1.90;100.00
4012;BME280;2020;48.682;9.024;2024-01-07T05:48:01;95898.09;;;1.88;100.00
4012;BME280;2020;48.682;9.024;2024-01-07T05:50:27;95900.22;;;1.94;100.00
4012;BME280;2020;48.682;9.024;2024-01-07T05:52:52;95900.09;;;1.96;100.00
4012;BME280;2020;48.682;9.024;2024-01-07T05:55:17;95910.59;;;1.93;100.00
4012;BME280;2020;48.682;9.024;2024-01-07T05:57:43;95911.63;;;1.90;100.00
4012;BME280;2020;48.682;9.024;2024-01-07T06:00:08;95908.38;;;1.88;100.00
4012;BME280;2020;48.682;9.024;2024-01-07T06:02:36;95912.34;;;1.81;100.00
4012;BME280;2020;48.682;9.024;2024-01-07T06:05:02;95905.56;;;1.80;100.00
4012;BME280;2020;48.682;9.024;2024-01-07T06:07:28;95906.97;;;1.84;100.00
4012;BME280;2020;48.682;9.024;2024-01-07T06:09:53;95902.28;;;1.78;100.00
4012;BME280;2020;48.682;9.024;2024-01-07T06:12:18;95902.28;;;1.78;100.00
4012;BME280;2020;48.682;9.024;2024-01-07T06:14:44;95911.16;;;1.73;100.00
4012;BME280;2020;48.682;9.024;2024-01-07T06:17:09;95915.25;;;1.76;100.00
4012;BME280;2020;48.682;9.024;2024-01-07T06:19:34;95918.28;;;1.81;100.00
4012;BME280;2020;48.682;9.024;2024-01-07T06:21:59;95913.03;;;1.71;100.00
4012;BME280;2020;48.682;9.024;2024-01-07T06:24:25;95909.53;;;1.72;100.00
4012;BME280;2020;48.682;9.024;2024-01-07T06:26:50;95917.34;;;1.71;100.00
4012;BME280;2020;48.682;9.024;2024-01-07T06:29:15;95922.34;;;1.72;100.00
4012;BME280;2020;48.682;9.024;2024-01-07T06:31:44;95930.50;;;1.66;100.00
4012;BME280;2020;48.682;9.024;2024-01-07T06:34:13;95929.47;;;1.69;100.00
4012;BME280;2020;48.682;9.024;2024-01-07T06:36:39;95923.50;;;1.68;100.00
4012;BME280;2020;48.682;9.024;2024-01-07T06:39:06;95928.63;;;1.68;100.00
4012;BME280;2020;48.682;9.024;2024-01-07T06:41:33;95933.78;;;1.68;100.00
4012;BME280;2020;48.682;9.024;2024-01-07T06:43:58;95943.56;;;1.63;100.00
4012;BME280;2020;48.682;9.024;2024-01-07T06:46:23;95935.63;;;1.66;100.00
4012;BME280;2020;48.682;9.024;2024-01-07T06:48:49;95943.81;;;1.71;100.00
4012;BME280;2020;48.682;9.024;2024-01-07T06:51:14;95939.38;;;1.73;100.00
4012;BME280;2020;48.682;9.024;2024-01-07T06:53:40;95942.41;;;1.67;100.00
4012;BME280;2020;48.682;9.024;2024-01-07T06:56:05;95943.81;;;1.71;100.00
4012;BME280;2020;48.682;9.024;2024-01-07T06:58:30;95955.94;;;1.69;100.00
4012;BME280;2020;48.682;9.024;2024-01-07T07:00:57;95952.09;;;1.64;100.00
4012;BME280;2020;48.682;9.024;2024-01-07T07:03:22;95958.69;;;1.55;100.00
4012;BME280;2020;48.682;9.024;2024-01-07T07:05:48;95957.75;;;1.56;100.00
4012;BME280;2020;48.682;9.024;2024-01-07T07:08:13;95966.38;;;1.55;100.00
4012;BME280;2020;48.682;9.024;2024-01-07T07:10:38;95984.13;;;1.58;100.00
4012;BME280;2020;48.682;9.024;2024-01-07T07:13:04;95978.78;;;1.61;100.00
4012;BME280;2020;48.682;9.024;2024-01-07T07:15:29;95977.97;;;1.60;100.00
4012;BME280;2020;48.682;9.024;2024-01-07T07:17:55;95981.47;;;1.59;100.00
4012;BME280;2020;48.682;9.024;2024-01-07T07:20:21;95983.69;;;1.64;100.00
4012;BME280;2020;48.682;9.024;2024-01-07T07:22:46;95992.97;;;1.54;100.00
4012;BME280;2020;48.682;9.024;2024-01-07T07:25:11;95988.50;;;1.44;100.00
4012;BME280;2020;48.682;9.024;2024-01-07T07:27:36;95997.56;;;1.37;100.00
4012;BME280;2020;48.682;9.024;2024-01-07T07:30:03;95993.41;;;1.48;100.00
4012;BME280;2020;48.682;9.024;2024-01-07T07:32:29;95997.03;;;1.45;100.00
4012;BME280;2020;48.682;9.024;2024-01-07T07:34:54;96001.81;;;1.50;100.00
4012;BME280;2020;48.682;9.024;2024-01-07T07:37:19;96004.50;;;1.48;100.00
4012;BME280;2020;48.682;9.024;2024-01-07T07:39:45;96011.09;;;1.39;100.00
4012;BME280;2020;48.682;9.024;2024-01-07T07:42:10;96016.00;;;1.42;100.00
4012;BME280;2020;48.682;9.024;2024-01-07T07:44:35;96020.34;;;1.42;100.00
4012;BME280;2020;48.682;9.024;2024-01-07T07:47:01;96015.28;;;1.40;100.00
4012;BME280;2020;48.682;9.024;2024-01-07T07:49:26;96015.47;;;1.26;100.00
4012;BME280;2020;48.682;9.024;2024-01-07T07:51:51;96017.09;;;1.27;100.00
4012;BME280;2020;48.682;9.024;2024-01-07T07:54:17;96030.13;;;1.24;100.00
4012;BME280;2020;48.682;9.024;2024-01-07T07:56:42;96024.09;;;1.25;100.00
4012;BME280;2020;48.682;9.024;2024-01-07T07:59:07;96025.94;;;1.23;100.00
4012;BME280;2020;48.682;9.024;2024-01-07T08:01:34;96029.00;;;1.28;100.00
4012;BME280;2020;48.682;9.024;2024-01-07T08:03:59;96032.28;;;1.30;100.00
4012;BME280;2020;48.682;9.024;2024-01-07T08:06:24;96031.06;;;1.23;100.00
4012;BME280;2020;48.682;9.024;2024-01-07T08:08:50;96034.34;;;1.25;100.00
4012;BME280;2020;48.682;9.024;2024-01-07T08:11:15;96032.91;;;1.21;100.00
4012;BME280;2020;48.682;9.024;2024-01-07T08:13:40;96036.84;;;1.13;100.00
4012;BME280;2020;48.682;9.024;2024-01-07T08:16:06;96043.59;;;1.14;100.00
4012;BME280;2020;48.682;9.024;2024-01-07T08:18:31;96050.59;;;1.12;100.00
4012;BME280;2020;48.682;9.024;2024-01-07T08:20:58;96049.66;;;1.13;100.00
4012;BME280;2020;48.682;9.024;2024-01-07T08:23:24;96048.72;;;1.14;100.00
4012;BME280;2020;48.682;9.024;2024-01-07T08:25:49;96048.94;;;1.11;100.00
4012;BME280;2020;48.682;9.024;2024-01-07T08:28:16;96045.47;;;1.12;100.00
4012;BME280;2020;48.682;9.024;2024-01-07T08:30:41;96054.72;;;1.02;100.00
4012;BME280;2020;48.682;9.024;2024-01-07T08:33:07;96052.66;;;1.07;100.00
4012;BME280;2020;48.682;9.024;2024-01-07T08:35:32;96050.59;;;1.12;100.00
4012;BME280;2020;48.682;9.024;2024-01-07T08:37:57;96048.59;;;0.92;100.00
4012;BME280;2020;48.682;9.024;2024-01-07T08:40:23;96053.06;;;1.01;100.00
4012;BME280;2020;48.682;9.024;2024-01-07T08:42:49;96059.34;;;0.97;100.00
4012;BME280;2020;48.682;9.024;2024-01-07T08:45:14;96062.09;;;0.94;100.00
4012;BME280;2020;48.682;9.024;2024-01-07T08:47:40;96058.53;;;0.83;100.00
4012;BME280;2020;48.682;9.024;2024-01-07T08:50:05;96056.91;;;0.82;100.00
4012;BME280;2020;48.682;9.024;2024-01-07T08:52:30;96069.09;;;0.92;100.00
4012;BME280;2020;48.682;9.024;2024-01-07T08:54:56;96067.25;;;0.94;100.00
4012;BME280;2020;48.682;9.024;2024-01-07T08:57:21;96067.25;;;0.94;100.00
4012;BME280;2020;48.682;9.024;2024-01-07T08:59:47;96079.03;;;0.83;100.00
4012;BME280;2020;48.682;9.024;2024-01-07T09:02:12;96074.84;;;0.82;100.00
4012;BME280;2020;48.682;9.024;2024-01-07T09:04:38;96079.53;;;0.89;100.00
4012;BME280;2020;48.682;9.024;2024-01-07T09:07:03;96081.19;;;0.90;100.00
4012;BME280;2020;48.682;9.024;2024-01-07T09:09:29;96081.19;;;0.90;100.00
4012;BME280;2020;48.682;9.024;2024-01-07T09:11:54;96093.50;;;0.84;100.00
4012;BME280;2020;48.682;9.024;2024-01-07T09:14:22;96090.09;;;0.84;100.00
4012;BME280;2020;48.682;9.024;2024-01-07T09:16:47;96096.56;;;0.90;100.00
4012;BME280;2020;48.682;9.024;2024-01-07T09:19:12;96096.34;;;0.93;100.00
4012;BME280;2020;48.682;9.024;2024-01-07T09:21:38;96104.53;;;0.98;100.00
4012;BME280;2020;48.682;9.024;2024-01-07T09:24:03;96105.13;;;1.01;100.00
4012;BME280;2020;48.682;9.024;2024-01-07T09:26:29;96108.97;;;0.96;100.00
4012;BME280;2020;48.682;9.024;2024-01-07T09:28:54;96114.00;;;0.84;100.00
4012;BME280;2020;48.682;9.024;2024-01-07T09:31:19;96115.00;;;0.95;100.00
4012;BME280;2020;48.682;9.024;2024-01-07T09:33:45;96111.41;;;0.97;100.00
4012;BME280;2020;48.682;9.024;2024-01-07T09:36:10;96113.16;;;0.97;100.00
4012;BME280;2020;48.682;9.024;2024-01-07T09:38:35;96117.06;;;0.90;100.00
4012;BME280;2020;48.682;9.024;2024-01-07T09:41:01;96118.06;;;1.00;100.00
4012;BME280;2020;48.682;9.024;2024-01-07T09:43:26;96120.63;;;1.00;100.00
4012;BME280;2020;48.682;9.024;2024-01-07T09:45:53;96121.56;;;0.99;100.00
4012;BME280;2020;48.682;9.024;2024-01-07T09:48:19;96122.78;;;1.06;100.00
4012;BME280;2020;48.682;9.024;2024-01-07T09:50:44;96119.47;;;1.17;100.00
4012;BME280;2020;48.682;9.024;2024-01-07T09:53:15;96113.97;;;1.10;100.00
4012;BME280;2020;48.682;9.024;2024-01-07T09:56:03;96117.44;;;1.09;100.00
4012;BME280;2020;48.682;9.024;2024-01-07T09:58:31;96114.34;;;1.17;100.00
4012;BME280;2020;48.682;9.024;2024-01-07T10:00:56;96108.00;;;1.10;100.00
4012;BME280;2020;48.682;9.024;2024-01-07T10:03:21;96120.09;;;1.21;100.00
4012;BME280;2020;48.682;9.024;2024-01-07T10:05:47;96111.91;;;1.15;100.00
4012;BME280;2020;48.682;9.024;2024-01-07T10:08:12;96107.78;;;1.13;100.00
4012;BME280;2020;48.682;9.024;2024-01-07T10:10:37;96110.69;;;1.08;100.00
4012;BME280;2020;48.682;9.024;2024-01-07T10:13:04;96102.66;;;1.13;100.00
4012;BME280;2020;48.682;9.024;2024-01-07T10:15:31;96104.63;;;1.09;100.00
4012;BME280;2020;48.682;9.024;2024-01-07T10:18:07;96108.81;;;1.10;100.00
4012;BME280;2020;48.682;9.024;2024-01-07T10:20:33;96105.13;;;1.14;100.00
4012;BME280;2020;48.682;9.024;2024-01-07T10:22:59;96111.19;;;1.13;100.00
4012;BME280;2020;48.682;9.024;2024-01-07T10:25:24;96113.75;;;1.13;100.00
4012;BME280;2020;48.682;9.024;2024-01-07T10:27:50;96114.75;;;1.11;100.00
4012;BME280;2020;48.682;9.024;2024-01-07T10:30:16;96127.06;;;1.19;100.00
4012;BME280;2020;48.682;9.024;2024-01-07T10:32:42;96121.31;;;1.15;100.00
4012;BME280;2020;48.682;9.024;2024-01-07T10:35:12;96115.19;;;1.17;100.00
4012;BME280;2020;48.682;9.024;2024-01-07T10:37:37;96119.81;;;1.12;100.00
4012;BME280;2020;48.682;9.024;2024-01-07T10:40:03;96115.59;;;1.11;100.00
4012;BME280;2020;48.682;9.024;2024-01-07T10:42:32;96117.03;;;1.02;100.00
4012;BME280;2020;48.682;9.024;2024-01-07T10:44:59;96115.50;;;0.87;100.00
4012;BME280;2020;48.682;9.024;2024-01-07T10:47:29;96121.97;;;0.93;100.00
4012;BME280;2020;48.682;9.024;2024-01-07T10:49:56;96125.69;;;0.89;100.00
4012;BME280;2020;48.682;9.024;2024-01-07T10:52:22;96120.34;;;0.92;100.00
4012;BME280;2020;48.682;9.024;2024-01-07T10:54:48;96125.25;;;0.95;100.00
4012;BME280;2020;48.682;9.024;2024-01-07T10:59:40;96136.94;;;0.73;100.00
4012;BME280;2020;48.682;9.024;2024-01-07T11:02:07;96139.81;;;0.68;100.00
4012;BME280;2020;48.682;9.024;2024-01-07T11:04:47;96142.28;;;0.70;100.00
4012;BME280;2020;48.682;9.024;2024-01-07T11:07:28;96135.91;;;0.63;100.00
4012;BME280;2020;48.682;9.024;2024-01-07T11:10:13;96132.81;;;0.57;100.00
4012;BME280;2020;48.682;9.024;2024-01-07T11:12:40;96141.44;;;0.56;100.00
4012;BME280;2020;48.682;9.024;2024-01-07T11:15:05;96141.44;;;0.56;100.00
4012;BME280;2020;48.682;9.024;2024-01-07T11:20:26;96142.22;;;0.31;100.00
4012;BME280;2020;48.682;9.024;2024-01-07T11:22:52;96146.22;;;0.48;100.00
4012;BME280;2020;48.682;9.024;2024-01-07T11:25:32;96145.94;;;0.53;100.00
4012;BME280;2020;48.682;9.024;2024-01-07T11:27:59;96142.66;;;0.51;100.00
4012;BME280;2020;48.682;9.024;2024-01-07T11:30:26;96140.00;;;0.52;100.00
4012;BME280;2020;48.682;9.024;2024-01-07T11:32:59;96143.47;;;0.51;100.00
4012;BME280;2020;48.682;9.024;2024-01-07T11:38:18;96151.75;;;0.42;99.27
4012;BME280;2020;48.682;9.024;2024-01-07T11:40:43;96143.47;;;0.51;100.00
4012;BME280;2020;48.682;9.024;2024-01-07T11:43:09;96144.31;;;0.52;100.00
4012;BME280;2020;48.682;9.024;2024-01-07T11:45:36;96144.91;;;0.55;100.00
4012;BME280;2020;48.682;9.024;2024-01-07T11:48:01;96144.91;;;0.55;99.01
4012;BME280;2020;48.682;9.024;2024-01-07T11:50:27;96146.03;;;0.51;97.84
4012;BME280;2020;48.682;9.024;2024-01-07T11:52:53;96150.94;;;0.54;98.16
4012;BME280;2020;48.682;9.024;2024-01-07T11:55:19;96149.63;;;0.62;100.00
4012;BME280;2020;48.682;9.024;2024-01-07T11:57:45;96135.91;;;0.63;100.00
4012;BME280;2020;48.682;9.024;2024-01-07T12:00:11;96143.06;;;0.57;97.51
4012;BME280;2020;48.682;9.024;2024-01-07T12:02:37;96142.25;;;0.57;98.44
4012;BME280;2020;48.682;9.024;2024-01-07T12:05:02;96150.03;;;0.55;98.78
4012;BME280;2020;48.682;9.024;2024-01-07T12:07:27;96149.81;;;0.58;99.08
4012;BME280;2020;48.682;9.024;2024-01-07T12:09:57;96146.63;;;0.42;97.35
4012;BME280;2020;48.682;9.024;2024-01-07T12:12:23;96149.84;;;0.46;98.30
4012;BME280;2020;48.682;9.024;2024-01-07T12:14:48;96143.88;;;0.45;97.70
4012;BME280;2020;48.682;9.024;2024-01-07T12:17:16;96147.03;;;0.36;97.51
4012;BME280;2020;48.682;9.024;2024-01-07T12:19:42;96144.69;;;0.33;98.01
4012;BME280;2020;48.682;9.024;2024-01-07T12:22:07;96157.28;;;0.36;98.99
4012;BME280;2020;48.682;9.024;2024-01-07T12:24:33;96152.47;;;0.44;99.86
4012;BME280;2020;48.682;9.024;2024-01-07T12:27:07;96157.28;;;0.36;99.43
4012;BME280;2020;48.682;9.024;2024-01-07T12:29:32;96156.16;;;0.40;98.67
4012;BME280;2020;48.682;9.024;2024-01-07T12:31:59;96163.13;;;0.38;98.78
4012;BME280;2020;48.682;9.024;2024-01-07T12:34:24;96151.63;;;0.31;97.82
4012;BME280;2020;48.682;9.024;2024-01-07T12:36:50;96162.88;;;0.15;97.61
4012;BME280;2020;48.682;9.024;2024-01-07T12:39:16;96158.13;;;0.09;98.43
4012;BME280;2020;48.682;9.024;2024-01-07T12:41:41;96161.63;;;0.08;98.00
4012;BME280;2020;48.682;9.024;2024-01-07T12:44:07;96160.16;;;0.04;97.55
4012;BME280;2020;48.682;9.024;2024-01-07T12:46:34;96159.59;;;0.13;98.81
4012;BME280;2020;48.682;9.024;2024-01-07T12:48:59;96162.66;;;0.18;99.07
4012;BME280;2020;48.682;9.024;2024-01-07T12:51:24;96159.19;;;0.19;98.70
4012;BME280;2020;48.682;9.024;2024-01-07T12:53:50;96159.38;;;0.03;99.68
4012;BME280;2020;48.682;9.024;2024-01-07T12:56:15;96157.88;;;-0.01;100.00
4012;BME280;2020;48.682;9.024;2024-01-07T12:58:41;96156.69;;;0.05;100.00
4012;BME280;2020;48.682;9.024;2024-01-07T13:01:06;96162.59;;;-0.08;100.00
4012;BME280;2020;48.682;9.024;2024-01-07T13:03:31;96158.88;;;-0.17;100.00
4012;BME280;2020;48.682;9.024;2024-01-07T13:05:56;96169.88;;;-0.02;100.00
4012;BME280;2020;48.682;9.024;2024-01-07T13:08:22;96168.28;;;-0.17;100.00
4012;BME280;2020;48.682;9.024;2024-01-07T13:10:48;96174.66;;;-0.10;100.00
4012;BME280;2020;48.682;9.024;2024-01-07T13:13:13;96176.50;;;-0.12;100.00
4012;BME280;2020;48.682;9.024;2024-01-07T13:15:39;96178.34;;;-0.14;100.00
4012;BME280;2020;48.682;9.024;2024-01-07T13:18:06;96181.16;;;-0.19;100.00
4012;BME280;2020;48.682;9.024;2024-01-07T13:20:31;96189.91;;;-0.36;100.00
4012;BME280;2020;48.682;9.024;2024-01-07T13:22:57;96184.03;;;-0.23;100.00